Time;durP1;ratioP1;P1;durP2;ratioP2;P2;SDS_P1;SDS_P2;PMS_P1;PMS_P2;Temp;Humidity;BMP_temperature;BMP_pressure;BME280_temperature;BME280_humidity;BME280_pressure;Samples;Min_cycle;Max_cycle;Signal;HPM_P1;HPM_P2
2021/04/27 00:01:34;;;;;;;1999.90;999.90;;;6.10;99.20;;;;;;5057788;28;20511;-94
2021/04/27 00:04:01;;;;;;;1999.90;999.90;;;6.10;99.20;;;;;;5056735;28;20052;-94
2021/04/27 00:06:28;;;;;;;1999.90;999.90;;;6.10;99.20;;;;;;5057344;28;20144;-94
2021/04/27 00:08:55;;;;;;;1999.90;999.90;;;6.10;99.20;;;;;;5057688;28;20528;-95
2021/04/27 00:11:24;;;;;;;1999.90;999.90;;;6.10;99.20;;;;;;5057981;28;20110;-93
2021/04/27 00:13:51;;;;;;;1999.90;999.90;;;6.10;99.30;;;;;;5058301;28;20088;-93
2021/04/27 00:16:18;;;;;;;1999.90;999.90;;;6.10;99.30;;;;;;5058728;28;20455;-93
2021/04/27 00:18:46;;;;;;;1999.90;999.90;;;6.00;99.40;;;;;;5058861;28;20053;-93
2021/04/27 00:21:14;;;;;;;1999.90;999.90;;;6.00;99.40;;;;;;5058473;28;20060;-93
2021/04/27 00:23:41;;;;;;;1999.90;999.90;;;6.00;99.40;;;;;;5057739;28;20107;-93
2021/04/27 00:26:08;;;;;;;1999.90;999.90;;;6.00;99.50;;;;;;5056398;28;20420;-94
2021/04/27 00:28:36;;;;;;;1999.90;999.90;;;6.00;99.50;;;;;;5057447;28;20114;-92
2021/04/27 00:31:03;;;;;;;1999.90;999.90;;;5.90;99.60;;;;;;5057931;28;20049;-94
2021/04/27 00:33:30;;;;;;;1999.90;999.90;;;5.90;99.60;;;;;;5057864;28;20117;-93
2021/04/27 00:35:58;;;;;;;1999.90;999.90;;;5.90;99.60;;;;;;5057589;28;20053;-93
2021/04/27 00:38:26;;;;;;;1999.90;999.90;;;5.90;99.60;;;;;;5058377;28;20045;-93
2021/04/27 00:40:56;;;;;;;1999.90;999.90;;;5.90;99.60;;;;;;5057471;28;20446;-93
2021/04/27 00:43:23;;;;;;;1999.90;999.90;;;5.90;99.70;;;;;;5057153;28;20449;-94
2021/04/27 00:45:51;;;;;;;1999.90;999.90;;;5.80;99.70;;;;;;5056764;28;20141;-89
2021/04/27 00:48:18;;;;;;;1999.90;999.90;;;5.80;99.80;;;;;;5034264;28;20092;-89
2021/04/27 00:50:46;;;;;;;1999.90;999.90;;;5.80;99.80;;;;;;5034102;28;20342;-89
2021/04/27 00:53:13;;;;;;;1999.90;999.90;;;5.70;99.80;;;;;;5034301;28;20145;-89
2021/04/27 00:55:40;;;;;;;1999.90;999.90;;;5.70;99.90;;;;;;5034489;28;20140;-89
2021/04/27 00:58:07;;;;;;;1999.90;999.90;;;5.60;99.90;;;;;;5029757;28;20077;-89
2021/04/27 01:00:36;;;;;;;1999.90;999.90;;;5.60;99.90;;;;;;5033401;28;20080;-89
2021/04/27 01:03:05;;;;;;;1999.90;999.90;;;5.60;99.90;;;;;;5028311;28;20068;-89
2021/04/27 01:05:34;;;;;;;1999.90;999.90;;;5.60;99.90;;;;;;5029755;28;20077;-89
2021/04/27 01:08:07;;;;;;;1999.90;999.90;;;5.60;99.90;;;;;;5027659;28;20072;-89
2021/04/27 01:10:44;;;;;;;1999.90;999.90;;;5.60;99.90;;;;;;5034328;28;20053;-89
2021/04/27 01:13:20;;;;;;;1999.90;999.90;;;5.50;99.90;;;;;;5032412;28;20083;-89
2021/04/27 01:15:49;;;;;;;1999.90;999.90;;;5.50;99.90;;;;;;5032394;28;20072;-89
2021/04/27 01:18:18;;;;;;;1999.90;999.90;;;5.50;99.90;;;;;;5033588;28;20128;-89
2021/04/27 01:20:49;;;;;;;1999.90;999.90;;;5.40;99.90;;;;;;5022436;28;20133;-89
2021/04/27 01:23:32;;;;;;;1999.90;999.90;;;5.40;99.90;;;;;;5029449;28;20518;-89
2021/04/27 01:26:02;;;;;;;1999.90;999.90;;;5.30;99.90;;;;;;5030005;28;20053;-89
2021/04/27 01:28:33;;;;;;;1999.90;999.90;;;5.30;99.90;;;;;;5022620;28;20072;-89
2021/04/27 01:31:01;;;;;;;1999.90;999.90;;;5.30;99.90;;;;;;5030269;28;20128;-89
2021/04/27 01:33:30;;;;;;;1999.90;999.90;;;5.30;99.90;;;;;;5032186;28;20107;-90
2021/04/27 01:36:00;;;;;;;1999.90;999.90;;;5.30;99.90;;;;;;5033618;28;20140;-90
2021/04/27 01:38:28;;;;;;;1999.90;999.90;;;5.30;99.90;;;;;;5029503;28;20505;-89
2021/04/27 01:40:56;;;;;;;1999.90;999.90;;;5.20;99.90;;;;;;5031796;28;20057;-89
2021/04/27 01:43:25;;;;;;;1999.90;999.90;;;5.20;99.90;;;;;;5033155;28;20543;-89
2021/04/27 01:45:56;;;;;;;1999.90;999.90;;;5.20;99.90;;;;;;5026761;28;20049;-90
2021/04/27 01:48:24;;;;;;;1999.90;999.90;;;5.20;99.90;;;;;;5035104;28;20061;-89
2021/04/27 01:50:53;;;;;;;1999.90;999.90;;;5.20;99.90;;;;;;5027626;28;20132;-90
2021/04/27 01:53:20;;;;;;;1999.90;999.90;;;5.20;99.90;;;;;;5028627;28;20512;-89
2021/04/27 01:55:49;;;;;;;1999.90;999.90;;;5.20;99.90;;;;;;5033163;28;20199;-90
2021/04/27 01:58:16;;;;;;;1999.90;999.90;;;5.20;99.90;;;;;;5033492;28;20075;-90
2021/04/27 02:00:44;;;;;;;1999.90;999.90;;;5.10;99.90;;;;;;5045099;28;20059;-89
2021/04/27 02:03:12;;;;;;;1999.90;999.90;;;5.10;99.90;;;;;;5047160;28;20069;-89
2021/04/27 02:05:40;;;;;;;1999.90;999.90;;;5.10;99.90;;;;;;5049979;28;20077;-90
2021/04/27 02:08:07;;;;;;;1999.90;999.90;;;5.10;99.90;;;;;;5034270;28;20140;-90
2021/04/27 02:10:35;;;;;;;1999.90;999.90;;;5.10;99.90;;;;;;5023140;28;20049;-90
2021/04/27 02:13:10;;;;;;;1999.90;999.90;;;5.10;99.90;;;;;;5031982;28;20057;-89
2021/04/27 02:15:37;;;;;;;1999.90;999.90;;;5.10;99.90;;;;;;5032796;28;20045;-89
2021/04/27 02:18:12;;;;;;;1999.90;999.90;;;5.10;99.90;;;;;;5032814;28;20083;-89
2021/04/27 02:20:42;;;;;;;1999.90;999.90;;;5.10;99.90;;;;;;5031792;28;20050;-89
2021/04/27 02:23:11;;;;;;;1999.90;999.90;;;5.10;99.90;;;;;;5033394;28;20057;-90
2021/04/27 02:25:39;;;;;;;1999.90;999.90;;;5.10;99.90;;;;;;5033226;28;20152;-90
2021/04/27 02:28:07;;;;;;;1999.90;999.90;;;5.10;99.90;;;;;;5034010;28;20136;-90
2021/04/27 02:30:35;;;;;;;1999.90;999.90;;;5.10;99.90;;;;;;5039203;28;20091;-90
2021/04/27 02:33:02;;;;;;;1999.90;999.90;;;5.00;99.90;;;;;;5050101;28;20053;-90
2021/04/27 02:35:30;;;;;;;1999.90;999.90;;;5.00;99.90;;;;;;5033465;28;20052;-89
2021/04/27 02:37:58;;;;;;;1999.90;999.90;;;5.00;99.90;;;;;;5029027;28;20137;-89
2021/04/27 02:40:28;;;;;;;1999.90;999.90;;;4.90;99.90;;;;;;5033923;28;20049;-89
2021/04/27 02:42:58;;;;;;;1999.90;999.90;;;4.90;99.90;;;;;;5032664;28;20389;-89
2021/04/27 02:45:31;;;;;;;1999.90;999.90;;;4.90;99.90;;;;;;5028999;28;20674;-94
2021/04/27 02:48:10;;;;;;;1999.90;999.90;;;4.90;99.90;;;;;;5036551;28;20057;-93
2021/04/27 02:50:39;;;;;;;1999.90;999.90;;;4.90;99.90;;;;;;5037177;28;20136;-93
2021/04/27 02:53:07;;;;;;;1999.90;999.90;;;4.80;99.90;;;;;;5038026;28;20063;-93
2021/04/27 02:55:34;;;;;;;1999.90;999.90;;;4.80;99.90;;;;;;5038804;28;20045;-94
2021/04/27 02:58:01;;;;;;;1999.90;999.90;;;4.80;99.90;;;;;;5035150;28;20058;-93
2021/04/27 03:00:28;;;;;;;1999.90;999.90;;;4.80;99.90;;;;;;5036676;28;20076;-93
2021/04/27 03:02:55;;;;;;;1999.90;999.90;;;4.80;99.90;;;;;;5042932;28;20061;-93
2021/04/27 03:05:22;;;;;;;1999.90;999.90;;;4.80;99.90;;;;;;5041197;28;20057;-93
2021/04/27 03:07:49;;;;;;;1999.90;999.90;;;4.70;99.90;;;;;;5054223;28;20095;-93
2021/04/27 03:10:17;;;;;;;1999.90;999.90;;;4.70;99.90;;;;;;5042454;28;20076;-93
2021/04/27 03:12:44;;;;;;;1999.90;999.90;;;4.70;99.90;;;;;;5054747;28;20081;-93
2021/04/27 03:15:13;;;;;;;1999.90;999.90;;;4.60;99.90;;;;;;5039730;28;20026;-93
2021/04/27 03:17:40;;;;;;;1999.90;999.90;;;4.60;99.90;;;;;;5040252;28;20041;-93
2021/04/27 03:23:54;;;;;;;1999.90;999.90;;;4.60;99.90;;;;;;5017342;28;20444;-95
2021/04/27 03:26:23;;;;;;;1999.90;999.90;;;4.50;99.90;;;;;;5017621;28;20081;-95
2021/04/27 03:28:50;;;;;;;1999.90;999.90;;;4.50;99.90;;;;;;5017705;28;20115;-94
2021/04/27 03:31:18;;;;;;;1999.90;999.90;;;4.50;99.90;;;;;;5018317;28;20113;-95
2021/04/27 03:33:45;;;;;;;1999.90;999.90;;;4.50;99.90;;;;;;5017822;28;20073;-95
2021/04/27 03:36:12;;;;;;;1999.90;999.90;;;4.50;99.90;;;;;;5018150;28;20120;-95
2021/04/27 03:38:39;;;;;;;1999.90;999.90;;;4.50;99.90;;;;;;5017501;28;20524;-95
2021/04/27 03:41:06;;;;;;;1999.90;999.90;;;4.50;99.90;;;;;;5017963;28;20053;-95
2021/04/27 03:43:34;;;;;;;1999.90;999.90;;;4.50;99.90;;;;;;5017717;28;20049;-94
2021/04/27 03:46:02;;;;;;;1999.90;999.90;;;4.40;99.90;;;;;;5017485;28;20436;-96
2021/04/27 03:48:29;;;;;;;1999.90;999.90;;;4.40;99.90;;;;;;5018358;28;20194;-95
2021/04/27 03:50:57;;;;;;;1999.90;999.90;;;4.40;99.90;;;;;;5018198;28;20060;-95
2021/04/27 03:53:24;;;;;;;1999.90;999.90;;;4.40;99.90;;;;;;5018186;28;20137;-95
2021/04/27 03:55:51;;;;;;;1999.90;999.90;;;4.30;99.90;;;;;;5017447;28;20049;-94
2021/04/27 03:58:18;;;;;;;1999.90;999.90;;;4.30;99.90;;;;;;5017770;28;20045;-94
2021/04/27 04:00:46;;;;;;;1999.90;999.90;;;4.30;99.90;;;;;;5017104;28;20049;-95
2021/04/27 04:03:13;;;;;;;1999.90;999.90;;;4.40;99.90;;;;;;5017258;28;20054;-95
2021/04/27 04:05:40;;;;;;;1999.90;999.90;;;4.30;99.90;;;;;;5017270;28;20149;-94
2021/04/27 04:08:07;;;;;;;1999.90;999.90;;;4.30;99.90;;;;;;5017752;28;20081;-94
2021/04/27 04:10:34;;;;;;;1999.90;999.90;;;4.40;99.90;;;;;;5020114;28;20077;-94
2021/04/27 04:13:01;;;;;;;1999.90;999.90;;;4.30;99.90;;;;;;5044589;28;20049;-95
2021/04/27 04:15:28;;;;;;;1999.90;999.90;;;4.30;99.90;;;;;;5074420;28;20084;-95
2021/04/27 04:17:56;;;;;;;1999.90;999.90;;;4.30;99.90;;;;;;5062564;28;20076;-95
2021/04/27 04:20:25;;;;;;;1999.90;999.90;;;4.30;99.90;;;;;;5058982;28;20055;-94
2021/04/27 04:22:52;;;;;;;1999.90;999.90;;;4.30;99.90;;;;;;5057052;28;20052;-96
2021/04/27 04:25:20;;;;;;;1999.90;999.90;;;4.30;99.90;;;;;;5056855;28;20095;-94
2021/04/27 04:27:47;;;;;;;1999.90;999.90;;;4.30;99.90;;;;;;5056186;28;20155;-95
2021/04/27 04:30:17;;;;;;;1999.90;999.90;;;4.30;99.90;;;;;;5057215;28;20056;-95
2021/04/27 04:32:44;;;;;;;1999.90;999.90;;;4.30;99.90;;;;;;5056419;28;20103;-95
2021/04/27 04:35:14;;;;;;;1999.90;999.90;;;4.30;99.90;;;;;;5056322;28;20385;-94
2021/04/27 04:37:41;;;;;;;1999.90;999.90;;;4.30;99.90;;;;;;5057514;28;20084;-95
2021/04/27 04:40:12;;;;;;;1999.90;999.90;;;4.40;99.90;;;;;;5057018;28;20045;-95
2021/04/27 04:42:39;;;;;;;1999.90;999.90;;;4.30;99.90;;;;;;5057134;28;20583;-95
2021/04/27 04:45:09;;;;;;;1999.90;999.90;;;4.40;99.90;;;;;;5057512;28;20106;-95
2021/04/27 04:47:36;;;;;;;1999.90;999.90;;;4.40;99.90;;;;;;5064702;28;20053;-95
2021/04/27 04:50:05;;;;;;;1999.90;999.90;;;4.40;99.90;;;;;;5059043;28;20393;-94
2021/04/27 04:52:34;;;;;;;1999.90;999.90;;;4.50;99.90;;;;;;5057169;28;20049;-95
2021/04/27 04:55:01;;;;;;;1999.90;999.90;;;4.50;99.90;;;;;;5056740;28;20479;-93
2021/04/27 04:57:28;;;;;;;1999.90;999.90;;;4.50;99.90;;;;;;5044886;28;20049;-93
2021/04/27 04:59:55;;;;;;;1999.90;999.90;;;4.60;99.90;;;;;;5031984;28;20049;-93
2021/04/27 05:02:22;;;;;;;1999.90;999.90;;;4.60;99.90;;;;;;5049389;28;20106;-94
2021/04/27 05:04:49;;;;;;;1999.90;999.90;;;4.60;99.90;;;;;;5055459;28;20053;-93
2021/04/27 05:07:22;;;;;;;1999.90;999.90;;;4.60;99.90;;;;;;5032508;28;20435;-93
2021/04/27 05:09:50;;;;;;;1999.90;999.90;;;4.70;99.90;;;;;;5036536;28;20148;-93
2021/04/27 05:12:18;;;;;;;1999.90;999.90;;;4.70;99.90;;;;;;5038048;28;20045;-93
2021/04/27 05:14:44;;;;;;;1999.90;999.90;;;4.80;99.90;;;;;;5034500;28;20136;-94
2021/04/27 05:17:15;;;;;;;1999.90;999.90;;;4.80;99.90;;;;;;5041956;28;20053;-93
2021/04/27 05:19:43;;;;;;;1999.90;999.90;;;4.90;99.90;;;;;;5045537;28;20543;-93
2021/04/27 05:22:10;;;;;;;1999.90;999.90;;;5.00;99.90;;;;;;5041959;28;20464;-93
2021/04/27 05:24:38;;;;;;;1999.90;999.90;;;4.90;99.90;;;;;;5030410;28;20067;-94
2021/04/27 05:27:08;;;;;;;1999.90;999.90;;;5.00;99.90;;;;;;5044850;28;20045;-93
2021/04/27 05:29:36;;;;;;;1999.90;999.90;;;5.10;99.90;;;;;;5043549;28;20049;-94
2021/04/27 05:32:04;;;;;;;1999.90;999.90;;;5.10;99.90;;;;;;5037830;28;20053;-94
2021/04/27 05:34:32;;;;;;;1999.90;999.90;;;5.20;99.90;;;;;;5047027;28;20053;-93
2021/04/27 05:36:59;;;;;;;1999.90;999.90;;;5.20;99.90;;;;;;5045033;28;20049;-93
2021/04/27 05:39:26;;;;;;;1999.90;999.90;;;5.30;99.90;;;;;;5066152;28;20056;-94
2021/04/27 05:41:53;;;;;;;1999.90;999.90;;;5.40;99.90;;;;;;5056611;28;20075;-94
2021/04/27 05:44:21;;;;;;;1999.90;999.90;;;5.40;99.90;;;;;;5036979;28;20613;-94
2021/04/27 05:46:48;;;;;;;1999.90;999.90;;;5.50;99.90;;;;;;5035199;28;20134;-94
2021/04/27 05:49:17;;;;;;;1999.90;999.90;;;5.50;99.90;;;;;;5040109;28;20057;-94
2021/04/27 05:51:44;;;;;;;1999.90;999.90;;;5.60;99.90;;;;;;5034075;28;20079;-93
2021/04/27 05:54:11;;;;;;;1999.90;999.90;;;5.70;99.90;;;;;;5050164;28;20103;-93
2021/04/27 05:56:38;;;;;;;1999.90;999.90;;;5.70;99.90;;;;;;5046095;28;20485;-93
2021/04/27 05:59:05;;;;;;;1999.90;999.90;;;5.80;99.90;;;;;;5034585;28;20057;-94
2021/04/27 06:01:33;;;;;;;1999.90;999.90;;;5.80;99.90;;;;;;5035122;28;20054;-96
2021/04/27 06:04:01;;;;;;;1999.90;999.90;;;5.90;99.90;;;;;;5037847;28;20107;-95
2021/04/27 06:06:35;;;;;;;1999.90;999.90;;;5.90;99.90;;;;;;5048517;28;20050;-95
2021/04/27 06:09:03;;;;;;;1999.90;999.90;;;6.00;99.90;;;;;;5048183;28;20055;-96
2021/04/27 06:11:31;;;;;;;1999.90;999.90;;;6.10;99.90;;;;;;5044548;28;20049;-96
2021/04/27 06:13:58;;;;;;;1999.90;999.90;;;6.10;99.90;;;;;;5038119;28;20053;-96
2021/04/27 06:16:26;;;;;;;1999.90;999.90;;;6.20;99.90;;;;;;5037058;28;20046;-96
2021/04/27 06:18:55;;;;;;;1999.90;999.90;;;6.30;99.90;;;;;;5034872;28;20080;-95
2021/04/27 06:21:23;;;;;;;1999.90;999.90;;;6.30;99.90;;;;;;5034727;28;20073;-96
2021/04/27 06:23:51;;;;;;;1999.90;999.90;;;6.40;99.90;;;;;;5035458;28;20095;-96
2021/04/27 06:26:19;;;;;;;1999.90;999.90;;;6.50;99.90;;;;;;5039410;28;20045;-95
2021/04/27 06:28:46;;;;;;;1999.90;999.90;;;6.60;99.90;;;;;;5038223;28;20053;-95
2021/04/27 06:31:13;;;;;;;1999.90;999.90;;;6.70;99.70;;;;;;5039198;28;20053;-96
2021/04/27 06:33:41;;;;;;;1999.90;999.90;;;6.70;99.70;;;;;;5038223;28;20132;-95
2021/04/27 06:36:09;;;;;;;1999.90;999.90;;;6.70;99.40;;;;;;5038831;28;20051;-95
2021/04/27 06:38:38;;;;;;;1999.90;999.90;;;6.70;99.30;;;;;;5039932;28;20069;-95
2021/04/27 06:41:05;;;;;;;1999.90;999.90;;;6.70;99.20;;;;;;5038370;28;20081;-95
2021/04/27 06:43:33;;;;;;;1999.90;999.90;;;6.80;99.10;;;;;;5038599;28;20053;-95
2021/04/27 06:46:00;;;;;;;1999.90;999.90;;;6.80;99.00;;;;;;5040388;28;20107;-96
2021/04/27 06:48:28;;;;;;;1999.90;999.90;;;6.80;99.00;;;;;;5042148;28;20049;-95
2021/04/27 06:50:55;;;;;;;1999.90;999.90;;;6.90;99.10;;;;;;5042000;28;20152;-95
2021/04/27 06:53:24;;;;;;;1999.90;999.90;;;6.90;98.90;;;;;;5041276;28;20117;-96
2021/04/27 06:55:51;;;;;;;1999.90;999.90;;;7.00;99.00;;;;;;5042012;28;20053;-95
2021/04/27 06:58:19;;;;;;;1999.90;999.90;;;7.00;98.90;;;;;;5044315;28;20099;-95
2021/04/27 07:00:47;;;;;;;1999.90;999.90;;;7.00;98.80;;;;;;5045264;28;20053;-95
2021/04/27 07:03:14;;;;;;;1999.90;999.90;;;7.10;98.70;;;;;;5056957;28;20080;-95
2021/04/27 07:05:43;;;;;;;1999.90;999.90;;;7.10;98.60;;;;;;5056387;28;20045;-94
2021/04/27 07:08:11;;;;;;;1999.90;999.90;;;7.20;98.70;;;;;;5057715;28;20057;-96
2021/04/27 07:10:39;;;;;;;1999.90;999.90;;;7.20;98.50;;;;;;5058185;28;20053;-95
2021/04/27 07:13:07;;;;;;;1999.90;999.90;;;7.30;98.70;;;;;;5059378;28;20132;-95
2021/04/27 07:15:34;;;;;;;1999.90;999.90;;;7.30;98.60;;;;;;5059500;28;20076;-95
2021/04/27 07:18:01;;;;;;;1999.90;999.90;;;7.40;98.30;;;;;;5042088;28;20110;-94
2021/04/27 07:20:28;;;;;;;1999.90;999.90;;;7.40;98.30;;;;;;5046030;28;20080;-94
2021/04/27 07:22:56;;;;;;;1999.90;999.90;;;7.40;98.10;;;;;;5043903;28;20053;-94
2021/04/27 07:25:24;;;;;;;1999.90;999.90;;;7.50;98.30;;;;;;5037584;28;20103;-94
2021/04/27 07:27:52;;;;;;;1999.90;999.90;;;7.50;98.00;;;;;;5025579;28;20128;-95
2021/04/27 07:30:21;;;;;;;1999.90;999.90;;;7.50;98.10;;;;;;5036633;28;20073;-94
2021/04/27 07:32:48;;;;;;;1999.90;999.90;;;7.60;98.30;;;;;;5037928;28;20108;-95
2021/04/27 07:35:15;;;;;;;1999.90;999.90;;;7.70;97.70;;;;;;5039640;28;20068;-95
2021/04/27 07:37:42;;;;;;;1999.90;999.90;;;7.70;98.00;;;;;;5037331;28;20053;-94
2021/04/27 07:40:11;;;;;;;1999.90;999.90;;;7.90;97.80;;;;;;5037221;28;20103;-95
2021/04/27 07:42:39;;;;;;;1999.90;999.90;;;8.00;97.60;;;;;;5045492;28;20053;-95
2021/04/27 07:45:09;;;;;;;1999.90;999.90;;;8.10;97.70;;;;;;5036798;28;20061;-95
2021/04/27 07:47:36;;;;;;;1999.90;999.90;;;8.20;97.50;;;;;;5042799;28;20052;-95
2021/04/27 07:50:06;;;;;;;1999.90;999.90;;;8.40;96.70;;;;;;5056931;28;20227;-95
2021/04/27 07:52:34;;;;;;;1999.90;999.90;;;8.50;97.30;;;;;;5040185;28;20053;-95
2021/04/27 07:55:01;;;;;;;1999.90;999.90;;;8.70;97.60;;;;;;5037015;28;20045;-95
2021/04/27 07:57:28;;;;;;;1999.90;999.90;;;8.70;96.70;;;;;;5036766;28;20053;-95
2021/04/27 07:59:55;;;;;;;1999.90;999.90;;;8.70;96.30;;;;;;5036525;28;20053;-95
2021/04/27 08:02:24;;;;;;;1999.90;999.90;;;8.80;95.90;;;;;;5037373;28;20465;-95
2021/04/27 08:04:51;;;;;;;1999.90;999.90;;;8.90;95.60;;;;;;5037251;28;20460;-95
2021/04/27 08:07:18;;;;;;;1999.90;999.90;;;9.00;94.70;;;;;;5046092;28;20121;-94
2021/04/27 08:09:45;;;;;;;1999.90;999.90;;;9.10;94.60;;;;;;5049756;28;20064;-95
2021/04/27 08:12:13;;;;;;;1999.90;999.90;;;9.10;94.70;;;;;;5057006;28;20132;-95
2021/04/27 08:14:40;;;;;;;1999.90;999.90;;;9.10;93.90;;;;;;5055748;28;20065;-95
2021/04/27 08:17:08;;;;;;;1999.90;999.90;;;9.30;93.50;;;;;;5047464;28;20472;-96
2021/04/27 08:19:36;;;;;;;1999.90;999.90;;;9.30;93.10;;;;;;5036139;28;20096;-95
2021/04/27 08:22:06;;;;;;;1999.90;999.90;;;9.40;92.90;;;;;;5036790;28;20396;-95
2021/04/27 08:24:34;;;;;;;1999.90;999.90;;;9.40;93.10;;;;;;5050084;28;20128;-95
2021/04/27 08:27:06;;;;;;;1999.90;999.90;;;9.60;92.90;;;;;;5016477;28;20100;-95
2021/04/27 08:29:33;;;;;;;1999.90;999.90;;;9.70;92.60;;;;;;5016460;28;20088;-95
2021/04/27 08:32:01;;;;;;;1999.90;999.90;;;9.90;92.00;;;;;;5016522;28;20068;-95
2021/04/27 08:34:29;;;;;;;1999.90;999.90;;;10.10;91.90;;;;;;5016393;28;20104;-96
2021/04/27 08:36:57;;;;;;;1999.90;999.90;;;10.20;92.10;;;;;;5016976;28;20146;-96
2021/04/27 08:39:24;;;;;;;1999.90;999.90;;;10.40;91.30;;;;;;5016625;28;20057;-96
2021/04/27 08:41:52;;;;;;;1999.90;999.90;;;10.40;91.50;;;;;;5016702;28;20056;-96
2021/04/27 08:44:20;;;;;;;1999.90;999.90;;;10.50;91.50;;;;;;5017157;28;20133;-96
2021/04/27 08:46:48;;;;;;;1999.90;999.90;;;10.60;91.90;;;;;;5015842;28;20441;-95
2021/04/27 08:49:16;;;;;;;1999.90;999.90;;;10.80;90.80;;;;;;5023433;28;20049;-96
2021/04/27 08:51:43;;;;;;;1999.90;999.90;;;11.00;88.70;;;;;;5036081;28;20455;-95
2021/04/27 08:54:25;;;;;;;1999.90;999.90;;;11.10;89.20;;;;;;5036183;28;20477;-95
2021/04/27 08:56:52;;;;;;;1999.90;999.90;;;11.20;87.80;;;;;;5036752;28;20050;-95
2021/04/27 08:59:19;;;;;;;1999.90;999.90;;;11.30;88.10;;;;;;5036779;28;20060;-95
2021/04/27 09:01:47;;;;;;;1999.90;999.90;;;11.40;86.90;;;;;;5042042;28;20060;-96
2021/04/27 09:04:35;;;;;;;1999.90;999.90;;;11.50;86.00;;;;;;5040194;28;20056;-96
2021/04/27 09:07:06;;;;;;;1999.90;999.90;;;11.60;88.20;;;;;;5038312;28;20053;-92
2021/04/27 09:09:39;;;;;;;1999.90;999.90;;;11.90;88.00;;;;;;5036888;28;20496;-92
2021/04/27 09:12:07;;;;;;;1999.90;999.90;;;12.10;87.20;;;;;;5034717;28;20073;-92
2021/04/27 09:14:39;;;;;;;1999.90;999.90;;;12.10;86.70;;;;;;5034286;28;20459;-92
2021/04/27 09:17:08;;;;;;;1999.90;999.90;;;12.20;88.40;;;;;;5029924;28;20075;-92
2021/04/27 09:19:42;;;;;;;1999.90;999.90;;;12.40;86.90;;;;;;5038216;28;20107;-92
2021/04/27 09:22:13;;;;;;;1999.90;999.90;;;12.50;85.90;;;;;;5026500;28;20402;-93
2021/04/27 09:24:43;;;;;;;1999.90;999.90;;;12.70;84.70;;;;;;5033463;28;20103;-93
2021/04/27 09:27:26;;;;;;;1999.90;999.90;;;12.90;82.90;;;;;;5036113;28;20088;-93
2021/04/27 09:29:53;;;;;;;1999.90;999.90;;;13.00;82.70;;;;;;5029667;28;20072;-93
2021/04/27 09:32:32;;;;;;;1999.90;999.90;;;13.10;81.90;;;;;;5037863;28;20060;-93
2021/04/27 09:35:21;;;;;;;1999.90;999.90;;;13.30;81.80;;;;;;5037149;28;20068;-93
2021/04/27 09:38:10;;;;;;;1999.90;999.90;;;13.40;81.10;;;;;;5035788;28;20067;-93
2021/04/27 09:40:46;;;;;;;1999.90;999.90;;;13.50;80.40;;;;;;5028664;28;20053;-93
2021/04/27 09:43:15;;;;;;;1999.90;999.90;;;13.70;79.10;;;;;;5046286;28;20139;-92
2021/04/27 09:45:44;;;;;;;1999.90;999.90;;;13.80;80.30;;;;;;5034162;28;20647;-91
2021/04/27 09:48:12;;;;;;;1999.90;999.90;;;13.90;77.80;;;;;;5023537;28;20061;-91
2021/04/27 09:50:40;;;;;;;1999.90;999.90;;;13.90;77.20;;;;;;5021431;28;20060;-91
2021/04/27 09:53:08;;;;;;;1999.90;999.90;;;14.00;77.00;;;;;;5052676;28;20057;-91
2021/04/27 09:55:35;;;;;;;1999.90;999.90;;;14.10;77.40;;;;;;5041540;28;20046;-92
2021/04/27 09:58:06;;;;;;;1999.90;999.90;;;14.20;75.30;;;;;;5051111;28;20072;-92
2021/04/27 10:00:40;;;;;;;1999.90;999.90;;;14.30;73.70;;;;;;5045601;28;20056;-92
2021/04/27 10:03:09;;;;;;;1999.90;999.90;;;14.40;72.60;;;;;;5039096;28;20053;-92
2021/04/27 10:05:39;;;;;;;1999.90;999.90;;;14.50;70.80;;;;;;5039211;28;20049;-96
2021/04/27 10:08:07;;;;;;;1999.90;999.90;;;14.50;68.70;;;;;;5039225;28;20464;-96
2021/04/27 10:10:36;;;;;;;1999.90;999.90;;;14.70;69.00;;;;;;5039667;28;20076;-96
2021/04/27 10:13:08;;;;;;;1999.90;999.90;;;14.90;68.70;;;;;;5039104;28;20499;-96
2021/04/27 10:15:36;;;;;;;1999.90;999.90;;;15.00;67.60;;;;;;5039668;28;20053;-96
2021/04/27 10:18:06;;;;;;;1999.90;999.90;;;15.00;66.90;;;;;;5039062;28;20060;-95
2021/04/27 10:20:35;;;;;;;1999.90;999.90;;;15.10;67.80;;;;;;5038996;28;20049;-96
2021/04/27 10:23:06;;;;;;;1999.90;999.90;;;15.20;65.20;;;;;;5038700;28;20049;-95
2021/04/27 10:25:35;;;;;;;1999.90;999.90;;;15.20;66.80;;;;;;5039237;28;20049;-96
2021/04/27 10:28:06;;;;;;;1999.90;999.90;;;15.40;63.40;;;;;;5038979;28;20053;-96
2021/04/27 10:30:40;;;;;;;1999.90;999.90;;;15.40;62.00;;;;;;5039201;28;20448;-96
2021/04/27 10:33:23;;;;;;;1999.90;999.90;;;15.60;62.30;;;;;;5039255;28;20079;-96
2021/04/27 10:36:03;;;;;;;1999.90;999.90;;;15.70;58.90;;;;;;5039091;28;20056;-96
2021/04/27 10:38:45;;;;;;;1999.90;999.90;;;15.80;60.20;;;;;;5039208;28;20112;-96
2021/04/27 10:41:15;;;;;;;1999.90;999.90;;;15.80;60.80;;;;;;5038510;28;20060;-96
2021/04/27 10:43:51;;;;;;;1999.90;999.90;;;15.90;58.90;;;;;;5039049;28;20057;-96
2021/04/27 10:46:50;;;;;;;1999.90;999.90;;;15.90;59.20;;;;;;5038237;28;20045;-96
2021/04/27 10:49:32;;;;;;;1999.90;999.90;;;16.20;56.70;;;;;;5026959;28;20056;-96
2021/04/27 10:52:01;;;;;;;1999.90;999.90;;;16.30;57.40;;;;;;5038108;28;20050;-96
2021/04/27 10:54:32;;;;;;;1999.90;999.90;;;16.40;55.50;;;;;;5038391;28;20055;-96
2021/04/27 10:57:17;;;;;;;1999.90;999.90;;;16.50;56.50;;;;;;5038057;28;20086;-96
2021/04/27 10:59:57;;;;;;;1999.90;999.90;;;16.60;58.10;;;;;;5038046;28;20084;-96
2021/04/27 11:02:27;;;;;;;1999.90;999.90;;;16.70;54.80;;;;;;5038098;28;20053;-96
2021/04/27 11:04:59;;;;;;;1999.90;999.90;;;16.80;53.90;;;;;;5038460;28;20417;-96
2021/04/27 11:07:38;;;;;;;1999.90;999.90;;;16.90;53.60;;;;;;5037559;28;20068;-96
2021/04/27 11:10:30;;;;;;;1999.90;999.90;;;17.00;56.10;;;;;;5038045;28;20476;-96
2021/04/27 11:13:12;;;;;;;1999.90;999.90;;;17.30;53.40;;;;;;5038100;28;20049;-96
2021/04/27 11:15:44;;;;;;;1999.90;999.90;;;17.30;52.60;;;;;;5038213;28;20064;-96
2021/04/27 11:18:16;;;;;;;1999.90;999.90;;;17.30;52.50;;;;;;5038673;28;20049;-96
2021/04/27 11:21:11;;;;;;;1999.90;999.90;;;17.40;51.20;;;;;;5037942;28;20056;-96
2021/04/27 11:23:56;;;;;;;1999.90;999.90;;;17.50;50.80;;;;;;5038329;28;20060;-96
2021/04/27 11:26:54;;;;;;;1999.90;999.90;;;17.60;51.30;;;;;;5038073;28;20092;-96
2021/04/27 11:29:24;;;;;;;1999.90;999.90;;;17.60;51.10;;;;;;5037995;28;20080;-96
2021/04/27 11:32:12;;;;;;;1999.90;999.90;;;17.70;51.30;;;;;;5037895;28;20113;-96
2021/04/27 11:34:54;;;;;;;1999.90;999.90;;;17.80;51.40;;;;;;5037819;28;20108;-96
2021/04/27 11:37:25;;;;;;;1999.90;999.90;;;17.80;51.90;;;;;;5037953;28;20068;-96
2021/04/27 11:39:53;;;;;;;1999.90;999.90;;;17.90;50.30;;;;;;5037990;28;20053;-96
2021/04/27 11:42:38;;;;;;;1999.90;999.90;;;18.00;51.80;;;;;;5037543;28;20493;-96
2021/04/27 11:45:07;;;;;;;;;;;18.10;49.00;;;;;;5038588;28;20053;-96
2021/04/27 11:47:38;;;;;;;1999.90;999.90;;;18.10;48.40;;;;;;5037235;28;20436;-96
2021/04/27 11:50:09;;;;;;;1999.90;999.90;;;18.10;51.10;;;;;;5037433;28;20053;-96
2021/04/27 11:53:01;;;;;;;1999.90;999.90;;;18.30;51.50;;;;;;5037394;28;20145;-96
2021/04/27 11:55:38;;;;;;;1999.90;999.90;;;18.30;51.30;;;;;;5038156;28;20372;-96
2021/04/27 11:58:14;;;;;;;1999.90;999.90;;;18.30;51.30;;;;;;5037903;28;20054;-96
2021/04/27 12:00:47;;;;;;;1999.90;999.90;;;18.50;48.90;;;;;;5037754;28;20531;-96
2021/04/27 12:03:27;;;;;;;1999.90;999.90;;;18.60;49.50;;;;;;5036863;28;20088;-96
2021/04/27 12:05:58;;;;;;;1999.90;999.90;;;18.70;50.00;;;;;;5037974;28;20145;-96
2021/04/27 12:08:28;;;;;;;1999.90;999.90;;;18.90;49.40;;;;;;5038369;28;20060;-96
2021/04/27 12:11:15;;;;;;;1999.90;999.90;;;18.90;49.80;;;;;;5039317;28;20056;-96
2021/04/27 12:13:44;;;;;;;1999.90;999.90;;;19.00;48.00;;;;;;5038362;28;20061;-96
2021/04/27 12:16:16;;;;;;;1999.90;999.90;;;19.10;49.20;;;;;;5038444;28;20059;-96
2021/04/27 12:19:05;;;;;;;1999.90;999.90;;;19.00;46.60;;;;;;5037911;28;20054;-96
2021/04/27 12:21:44;;;;;;;1999.90;999.90;;;19.10;46.70;;;;;;5036225;28;20484;-96
2021/04/27 12:24:21;;;;;;;1999.90;999.90;;;19.20;46.00;;;;;;5038589;28;20060;-96